Time;durP1;ratioP1;P1;durP2;ratioP2;P2;SDS_P1;SDS_P2;PMS_P1;PMS_P2;Temp;Humidity;BMP_temperature;BMP_pressure;BME280_temperature;BME280_humidity;BME280_pressure;Samples;Min_cycle;Max_cycle;Signal;HPM_P1;HPM_P2
2023/09/13 00:01:02;;;;;;;9.60;4.65;;;;;;;16.63;69.87;95094.38;4788287;29;20191;-69
2023/09/13 00:03:27;;;;;;;9.13;4.65;;;;;;;16.63;70.14;95096.25;4788540;30;20250;-69
2023/09/13 00:05:54;;;;;;;15.93;4.55;;;;;;;16.59;70.31;95093.25;4788435;29;20210;-69
2023/09/13 00:08:20;;;;;;;10.70;5.00;;;;;;;16.57;70.47;95090.03;4788290;29;20232;-69
2023/09/13 00:10:45;;;;;;;11.05;4.53;;;;;;;16.58;70.61;95094.28;4788372;30;20283;-69
2023/09/13 00:13:12;;;;;;;8.20;4.78;;;;;;;16.57;70.36;95100.66;4788043;29;20611;-69
2023/09/13 00:15:43;;;;;;;10.30;5.05;;;;;;;16.48;70.40;95086.16;4788153;30;20195;-69
2023/09/13 00:18:09;;;;;;;9.48;4.20;;;;;;;16.52;70.40;95096.03;4788277;29;20214;-69
2023/09/13 00:20:37;;;;;;;8.75;4.70;;;;;;;16.49;70.47;95107.19;4788036;29;20184;-69
2023/09/13 00:23:03;;;;;;;8.13;4.78;;;;;;;16.46;70.76;95109.50;4788017;29;20271;-69
2023/09/13 00:25:29;;;;;;;10.52;4.80;;;;;;;16.38;70.79;95099.28;4787901;29;20255;-69
2023/09/13 00:27:54;;;;;;;13.50;4.40;;;;;;;16.38;70.83;95110.72;4771787;30;20182;-69
2023/09/13 00:30:19;;;;;;;9.23;4.30;;;;;;;16.32;70.96;95105.56;4787850;29;20219;-69
2023/09/13 00:32:45;;;;;;;11.40;4.47;;;;;;;16.29;71.12;95104.16;4787819;29;20679;-69
2023/09/13 00:35:10;;;;;;;12.38;5.53;;;;;;;16.30;71.28;95107.63;4787847;29;20271;-69
2023/09/13 00:37:35;;;;;;;11.15;5.25;;;;;;;16.29;71.02;95098.06;4787808;29;20181;-69
2023/09/13 00:40:01;;;;;;;10.70;5.60;;;;;;;16.18;71.35;95089.09;4787896;29;20288;-69
2023/09/13 00:42:28;;;;;;;10.02;4.50;;;;;;;16.27;71.07;95102.78;4787747;29;20184;-69
2023/09/13 00:44:53;;;;;;;15.75;5.15;;;;;;;16.21;71.29;95100.06;4787793;29;20253;-69
2023/09/13 00:47:19;;;;;;;8.25;4.43;;;;;;;16.15;71.52;95101.03;4787831;29;20185;-69
2023/09/13 00:49:47;;;;;;;9.73;4.53;;;;;;;16.14;71.50;95096.75;4787663;29;20236;-69
2023/09/13 00:52:13;;;;;;;7.35;4.38;;;;;;;16.14;71.73;95109.22;4787889;30;20180;-69
2023/09/13 00:54:38;;;;;;;10.77;4.95;;;;;;;16.08;71.39;95112.84;4787663;29;20222;-69
2023/09/13 00:57:04;;;;;;;8.80;4.05;;;;;;;16.06;71.58;95109.63;4787464;29;20574;-68
2023/09/13 00:59:30;;;;;;;12.13;5.47;;;;;;;16.02;71.63;95106.63;4787305;29;20204;-69
2023/09/13 01:01:55;;;;;;;11.38;4.03;;;;;;;16.00;71.66;95111.34;4796308;29;20287;-69
2023/09/13 01:04:20;;;;;;;12.63;4.57;;;;;;;15.96;72.02;95112.88;4805264;29;20716;-69
2023/09/13 01:06:46;;;;;;;9.07;4.90;;;;;;;15.90;71.77;95113.84;4805424;29;20213;-69
2023/09/13 01:09:14;;;;;;;9.32;4.78;;;;;;;15.84;72.28;95109.47;4805265;29;20211;-69
2023/09/13 01:11:40;;;;;;;20.55;4.20;;;;;;;15.84;72.62;95110.28;4787888;29;20175;-69
2023/09/13 01:14:05;;;;;;;10.38;4.25;;;;;;;15.81;72.61;95104.66;4805366;29;20192;-69
2023/09/13 01:16:57;;;;;;;8.38;4.65;;;;;;;15.77;72.60;95106.16;4805238;29;20184;-69
2023/09/13 01:19:51;;;;;;;8.07;4.18;;;;;;;15.69;73.01;95110.00;4805249;29;20180;-69
2023/09/13 01:22:49;;;;;;;9.35;4.63;;;;;;;15.68;73.24;95103.06;4805188;29;20183;-69
2023/09/13 01:25:41;;;;;;;7.82;5.15;;;;;;;15.66;73.24;95101.69;4805110;29;20260;-69
2023/09/13 01:28:28;;;;;;;7.50;4.45;;;;;;;15.68;73.15;95107.56;4804937;29;20184;-69
2023/09/13 01:30:54;;;;;;;9.90;4.82;;;;;;;15.65;73.32;95105.41;4803831;29;20432;-69
2023/09/13 01:33:19;;;;;;;14.18;4.68;;;;;;;15.70;73.35;95113.44;4804737;29;20655;-69
2023/09/13 01:35:45;;;;;;;10.40;4.13;;;;;;;15.74;72.80;95109.28;4804692;29;20563;-69
2023/09/13 01:38:10;;;;;;;12.20;4.28;;;;;;;15.77;72.92;95109.59;4804709;29;20176;-69
2023/09/13 01:40:39;;;;;;;9.00;5.07;;;;;;;15.66;73.12;95104.34;4804779;29;20711;-69
2023/09/13 01:43:06;;;;;;;10.48;4.47;;;;;;;15.66;73.19;95113.09;4804582;29;20679;-69
2023/09/13 01:45:35;;;;;;;5.53;4.00;;;;;;;15.64;73.30;95119.72;4804700;29;20633;-69
2023/09/13 01:48:02;;;;;;;6.75;4.20;;;;;;;15.61;73.04;95107.72;4804441;29;20618;-69
2023/09/13 01:50:30;;;;;;;12.82;4.10;;;;;;;15.51;73.14;95096.03;4804714;29;20217;-69
2023/09/13 01:52:55;;;;;;;7.28;3.88;;;;;;;15.38;73.39;95089.19;4802731;29;20205;-69
2023/09/13 01:55:21;;;;;;;10.68;4.07;;;;;;;15.48;73.72;95110.59;4804441;29;20296;-69
2023/09/13 01:57:46;;;;;;;5.40;3.85;;;;;;;15.47;73.71;95106.34;4804541;29;20183;-69
2023/09/13 02:00:12;;;;;;;9.52;4.60;;;;;;;15.50;73.72;95100.53;4804441;29;20186;-69
2023/09/13 02:02:38;;;;;;;5.80;3.90;;;;;;;15.50;73.70;95108.50;4804508;29;20187;-70
2023/09/13 02:05:03;;;;;;;9.15;3.97;;;;;;;15.54;73.33;95100.94;4804549;29;20897;-69
2023/09/13 02:07:29;;;;;;;12.82;5.13;;;;;;;15.53;73.50;95112.53;4804285;29;20689;-69
2023/09/13 02:09:54;;;;;;;5.75;3.88;;;;;;;15.46;73.57;95110.84;4804362;29;20207;-69
2023/09/13 02:12:20;;;;;;;8.48;4.55;;;;;;;15.46;73.83;95105.53;4804099;29;20359;-69
2023/09/13 02:14:45;;;;;;;8.38;4.38;;;;;;;15.42;73.83;95111.53;4804188;29;20692;-69
2023/09/13 02:17:10;;;;;;;6.25;3.97;;;;;;;15.43;73.82;95113.13;4804157;29;20180;-69
2023/09/13 02:19:36;;;;;;;8.52;4.18;;;;;;;15.41;73.97;95108.06;4804057;29;20233;-69
2023/09/13 02:22:03;;;;;;;13.35;5.15;;;;;;;15.43;74.08;95108.66;4804027;29;20184;-69
2023/09/13 02:24:28;;;;;;;12.55;4.35;;;;;;;15.40;73.90;95103.78;4804159;29;20640;-69
2023/09/13 02:26:56;;;;;;;11.93;5.03;;;;;;;15.40;74.00;95105.66;4803797;29;20192;-69
2023/09/13 02:29:22;;;;;;;9.65;4.35;;;;;;;15.41;73.87;95104.59;4803931;29;20192;-69
2023/09/13 02:31:47;;;;;;;7.03;4.47;;;;;;;15.41;73.95;95107.25;4804013;29;20192;-69
2023/09/13 02:34:12;;;;;;;7.00;3.90;;;;;;;15.33;73.79;95104.97;4804099;29;20559;-69
2023/09/13 02:36:38;;;;;;;7.00;3.85;;;;;;;15.31;74.17;95105.19;4803675;29;20203;-69
2023/09/13 02:39:03;;;;;;;13.07;4.45;;;;;;;15.29;74.30;95109.16;4803616;29;20188;-70
2023/09/13 02:41:29;;;;;;;6.38;4.38;;;;;;;15.18;74.62;95108.13;4803946;29;20191;-69
2023/09/13 02:43:54;;;;;;;15.77;5.00;;;;;;;15.06;74.97;95094.06;4803886;29;20290;-69
2023/09/13 02:46:19;;;;;;;9.02;3.75;;;;;;;15.15;75.00;95116.53;4803701;29;20186;-69
2023/09/13 02:48:45;;;;;;;7.63;3.67;;;;;;;15.18;74.88;95118.72;4803657;29;20215;-69
2023/09/13 02:51:12;;;;;;;10.88;4.28;;;;;;;15.09;74.66;95112.16;4803660;29;20184;-70
2023/09/13 02:53:38;;;;;;;5.72;3.50;;;;;;;15.08;74.98;95119.31;4803631;29;20186;-69
2023/09/13 02:56:07;;;;;;;12.68;5.10;;;;;;;15.05;75.12;95119.75;4803440;29;20183;-69
2023/09/13 02:58:33;;;;;;;14.48;4.10;;;;;;;15.01;75.41;95109.88;4803412;29;20180;-69
2023/09/13 03:01:03;;;;;;;11.07;4.85;;;;;;;15.07;75.11;95119.53;4803545;29;20188;-69
2023/09/13 03:03:28;;;;;;;12.68;4.15;;;;;;;15.10;74.95;95125.19;4787252;29;20183;-69
2023/09/13 03:05:53;;;;;;;14.38;4.13;;;;;;;15.13;74.59;95123.94;4803160;29;20623;-69
2023/09/13 03:08:19;;;;;;;7.90;4.15;;;;;;;15.12;74.65;95119.66;4803354;29;20203;-69
2023/09/13 03:10:44;;;;;;;14.85;4.30;;;;;;;15.05;74.84;95125.06;4803270;29;20648;-69
2023/09/13 03:13:09;;;;;;;10.38;4.22;;;;;;;15.01;74.95;95123.13;4802866;29;20224;-69
2023/09/13 03:15:35;;;;;;;9.52;4.70;;;;;;;15.04;74.79;95128.78;4802888;29;20211;-69
2023/09/13 03:18:01;;;;;;;12.15;5.38;;;;;;;15.03;75.03;95134.31;4803395;29;20644;-69
2023/09/13 03:20:26;;;;;;;12.18;4.32;;;;;;;15.01;74.65;95133.72;4802902;29;20274;-69
2023/09/13 03:22:54;;;;;;;9.05;4.65;;;;;;;15.02;74.68;95138.81;4802747;29;20212;-69
2023/09/13 03:25:19;;;;;;;6.50;4.07;;;;;;;15.00;74.74;95142.72;4802846;29;20180;-69
2023/09/13 03:27:48;;;;;;;34.85;20.02;;;;;;;14.96;74.82;95134.41;4803037;29;20690;-69
2023/09/13 03:30:14;;;;;;;14.13;8.25;;;;;;;14.96;75.19;95139.72;4802860;29;20212;-69
2023/09/13 03:32:39;;;;;;;17.30;10.27;;;;;;;14.84;75.40;95127.50;4802817;29;20179;-69
2023/09/13 03:35:05;;;;;;;20.50;9.30;;;;;;;14.87;75.36;95142.97;4802312;29;20184;-68
2023/09/13 03:37:32;;;;;;;12.55;5.28;;;;;;;14.84;75.16;95138.09;4802611;29;20188;-69
2023/09/13 03:39:58;;;;;;;14.30;3.88;;;;;;;14.79;75.38;95141.44;4802847;29;20211;-69
2023/09/13 03:42:23;;;;;;;7.18;3.95;;;;;;;14.75;75.12;95132.34;4803010;29;20272;-69
2023/09/13 03:44:49;;;;;;;10.82;4.72;;;;;;;14.70;75.61;95140.97;4803072;29;20971;-68
2023/09/13 03:47:14;;;;;;;12.20;4.70;;;;;;;14.67;75.86;95138.78;4802781;29;20652;-68
2023/09/13 03:49:40;;;;;;;9.40;4.70;;;;;;;14.64;75.96;95135.78;4802839;29;20208;-69
2023/09/13 03:52:05;;;;;;;15.00;4.65;;;;;;;14.61;75.77;95131.75;4794948;29;20523;-68
2023/09/13 03:54:31;;;;;;;9.68;4.35;;;;;;;14.54;76.07;95124.94;4784448;29;20187;-69
2023/09/13 03:56:57;;;;;;;5.32;3.25;;;;;;;14.61;76.05;95137.06;4784468;29;20181;-69
2023/09/13 03:59:23;;;;;;;10.02;4.78;;;;;;;14.59;75.91;95138.31;4784515;30;20705;-69
2023/09/13 04:01:48;;;;;;;8.77;3.55;;;;;;;14.57;76.10;95135.88;4784742;30;20271;-69
2023/09/13 04:04:14;;;;;;;17.88;4.78;;;;;;;14.57;76.20;95135.88;4784425;29;20242;-69
2023/09/13 04:06:40;;;;;;;10.77;4.72;;;;;;;14.53;76.46;95137.38;4784586;29;20604;-69
2023/09/13 04:09:06;;;;;;;10.73;4.30;;;;;;;14.50;76.28;95140.50;4784596;29;20204;-69
2023/09/13 04:11:31;;;;;;;12.50;4.80;;;;;;;14.48;76.24;95139.91;4784694;29;20185;-69
2023/09/13 04:13:57;;;;;;;15.52;5.03;;;;;;;14.49;76.33;95146.00;4784497;29;20184;-69
2023/09/13 04:16:22;;;;;;;20.73;5.13;;;;;;;14.48;76.61;95141.75;4784596;29;20188;-69
2023/09/13 04:18:48;;;;;;;16.92;4.93;;;;;;;14.48;76.47;95139.09;4784402;29;20263;-69
2023/09/13 04:21:13;;;;;;;17.55;5.30;;;;;;;14.45;76.50;95139.53;4784506;29;20271;-69
2023/09/13 04:23:39;;;;;;;14.90;4.95;;;;;;;14.40;76.73;95129.63;4784545;29;20714;-69
2023/09/13 04:26:04;;;;;;;15.02;5.28;;;;;;;14.46;77.04;95149.91;4784695;30;20207;-70
2023/09/13 04:28:32;;;;;;;15.63;4.23;;;;;;;14.49;77.42;95144.19;4784521;29;20287;-68
2023/09/13 04:30:59;;;;;;;7.67;4.60;;;;;;;14.52;76.87;95137.63;4784761;29;20633;-68
2023/09/13 04:33:53;;;;;;;8.63;3.92;;;;;;;14.54;77.14;95144.28;4784616;29;20192;-67
2023/09/13 04:36:19;;;;;;;18.40;5.20;;;;;;;14.48;76.95;95134.59;4784328;29;20185;-67
2023/09/13 04:38:46;;;;;;;11.13;4.38;;;;;;;14.59;77.10;95146.25;4783022;30;20191;-67
2023/09/13 04:41:15;;;;;;;16.65;6.38;;;;;;;14.66;77.13;95145.13;4784461;30;20185;-67
2023/09/13 04:43:41;;;;;;;14.77;4.82;;;;;;;14.64;76.76;95133.13;4783366;29;20950;-67
2023/09/13 04:46:07;;;;;;;12.60;4.35;;;;;;;14.81;76.92;95149.97;4784152;29;20180;-68
2023/09/13 04:48:32;;;;;;;10.40;4.57;;;;;;;14.88;76.57;95148.00;4786611;29;20285;-68
2023/09/13 04:50:58;;;;;;;13.57;4.97;;;;;;;14.98;76.39;95150.91;4788333;29;20238;-67
2023/09/13 04:53:23;;;;;;;7.97;4.38;;;;;;;15.08;75.80;95152.97;4789188;29;20575;-67
2023/09/13 04:55:48;;;;;;;15.38;5.32;;;;;;;15.18;75.66;95157.69;4793405;29;20672;-67
2023/09/13 04:58:14;;;;;;;14.25;4.80;;;;;;;15.27;75.12;95149.16;4796706;29;20316;-67
2023/09/13 05:00:39;;;;;;;23.58;6.57;;;;;;;15.39;75.30;95144.63;4795568;29;20188;-67
2023/09/13 05:03:04;;;;;;;15.85;5.10;;;;;;;15.56;75.25;95147.44;4778656;29;20175;-68
2023/09/13 05:05:30;;;;;;;14.27;5.22;;;;;;;15.76;74.39;95147.00;4793376;29;20845;-67
2023/09/13 05:07:55;;;;;;;14.82;5.72;;;;;;;15.92;73.56;95129.53;4794260;29;20190;-68
2023/09/13 05:10:21;;;;;;;10.80;4.97;;;;;;;16.36;71.66;95150.00;4801187;29;20216;-68
2023/09/13 05:12:49;;;;;;;15.55;5.65;;;;;;;16.73;70.86;95146.91;4799191;29;20780;-69
2023/09/13 05:15:15;;;;;;;16.50;4.70;;;;;;;17.12;69.04;95145.94;4791649;29;20184;-68
2023/09/13 05:17:40;;;;;;;20.92;6.18;;;;;;;17.52;68.58;95156.34;4794407;29;20191;-70
2023/09/13 05:20:06;;;;;;;16.40;4.47;;;;;;;17.91;66.31;95153.63;4801900;29;20180;-68
2023/09/13 05:22:33;;;;;;;10.25;4.43;;;;;;;18.27;65.27;95160.97;4788418;29;20187;-69
2023/09/13 05:25:00;;;;;;;9.05;4.57;;;;;;;18.59;63.55;95158.41;4788124;29;20215;-69
2023/09/13 05:27:26;;;;;;;10.88;5.07;;;;;;;18.85;62.51;95162.88;4803450;29;20253;-69
2023/09/13 05:29:52;;;;;;;14.65;4.75;;;;;;;19.03;61.96;95161.69;4804427;29;20200;-69
2023/09/13 05:32:18;;;;;;;24.35;5.25;;;;;;;19.15;61.62;95143.63;4805094;29;20184;-69
2023/09/13 05:34:43;;;;;;;9.93;4.80;;;;;;;19.47;59.32;95153.41;4805122;29;20196;-69
2023/09/13 05:37:09;;;;;;;18.20;6.05;;;;;;;19.70;59.95;95155.72;4804448;29;21108;-69
2023/09/13 05:39:34;;;;;;;12.50;4.72;;;;;;;19.94;58.00;95158.75;4788169;29;20242;-69
2023/09/13 05:42:01;;;;;;;10.93;5.10;;;;;;;20.14;57.43;95166.06;4794454;29;20271;-68
2023/09/13 05:44:27;;;;;;;8.82;4.82;;;;;;;20.34;56.54;95166.13;4786543;29;20203;-69
2023/09/13 05:46:52;;;;;;;10.27;4.47;;;;;;;20.53;55.82;95150.38;4786785;30;20211;-69
2023/09/13 05:49:18;;;;;;;11.68;5.70;;;;;;;20.88;55.19;95157.63;4786207;29;20234;-69
2023/09/13 05:51:43;;;;;;;13.82;5.32;;;;;;;21.13;53.53;95157.63;4786310;29;20212;-69
2023/09/13 05:54:09;;;;;;;8.20;5.45;;;;;;;21.37;52.86;95156.03;4786617;29;20188;-69
2023/09/13 05:56:34;;;;;;;10.15;5.03;;;;;;;21.66;53.62;95158.91;4770064;30;20200;-69
2023/09/13 05:58:59;;;;;;;22.15;6.15;;;;;;;21.91;52.51;95166.06;4786607;29;20176;-69
2023/09/13 06:01:25;;;;;;;16.38;6.32;;;;;;;22.01;50.69;95158.00;4786474;30;20262;-69
2023/09/13 06:03:50;;;;;;;15.23;5.68;;;;;;;22.14;51.90;95151.25;4786431;29;20729;-69
2023/09/13 06:06:16;;;;;;;17.75;6.00;;;;;;;22.20;51.74;95132.19;4786492;29;20612;-69
2023/09/13 06:08:41;;;;;;;17.88;5.47;;;;;;;22.65;49.85;95151.78;4786204;29;20212;-69
2023/09/13 06:11:07;;;;;;;12.90;6.40;;;;;;;22.84;48.55;95149.22;4770326;30;20993;-69
2023/09/13 06:13:33;;;;;;;17.85;5.30;;;;;;;22.84;48.38;95152.72;4786203;29;20239;-69
2023/09/13 06:15:58;;;;;;;9.13;5.45;;;;;;;22.93;48.22;95153.72;4786224;29;20189;-69
2023/09/13 06:18:23;;;;;;;16.55;6.00;;;;;;;23.08;47.88;95146.63;4786373;30;20273;-69
2023/09/13 06:20:49;;;;;;;8.65;5.22;;;;;;;23.09;47.13;95157.06;4786226;30;20250;-69
2023/09/13 06:23:37;;;;;;;15.32;5.43;;;;;;;22.88;47.92;95158.34;4786177;29;20188;-69
2023/09/13 06:26:02;;;;;;;11.27;5.28;;;;;;;23.13;48.09;95155.44;4786086;29;20181;-69
2023/09/13 06:28:28;;;;;;;16.02;5.18;;;;;;;23.45;46.32;95152.19;4785949;29;20273;-69
2023/09/13 06:30:54;;;;;;;14.15;5.22;;;;;;;23.77;46.67;95159.69;4786161;29;20184;-69
2023/09/13 06:33:19;;;;;;;9.80;4.95;;;;;;;23.95;45.55;95155.47;4785781;30;20217;-69
2023/09/13 06:35:45;;;;;;;12.57;5.28;;;;;;;24.00;45.31;95166.13;4785682;29;20212;-69
2023/09/13 06:38:11;;;;;;;10.15;5.20;;;;;;;24.03;45.30;95162.88;4786090;29;20626;-69
2023/09/13 06:40:39;;;;;;;10.55;5.72;;;;;;;23.56;45.87;95134.91;4785927;29;20267;-69
2023/09/13 06:43:04;;;;;;;12.77;5.85;;;;;;;23.67;45.94;95152.53;4785785;30;20184;-69
2023/09/13 06:45:30;;;;;;;17.83;6.38;;;;;;;23.44;46.35;95160.56;4785459;29;20214;-69
2023/09/13 06:47:55;;;;;;;16.23;6.78;;;;;;;23.75;47.22;95159.16;4785435;30;20184;-69
2023/09/13 06:50:20;;;;;;;17.38;6.85;;;;;;;24.25;46.28;95159.69;4785402;29;20212;-69
2023/09/13 06:52:47;;;;;;;15.07;6.95;;;;;;;24.75;45.55;95167.03;4785733;29;20253;-69
2023/09/13 06:55:12;;;;;;;14.48;7.03;;;;;;;25.00;44.06;95170.47;4800867;29;20187;-69
2023/09/13 06:57:37;;;;;;;11.48;6.45;;;;;;;25.26;43.67;95176.25;4803607;29;20190;-69
2023/09/13 07:00:08;;;;;;;21.40;7.45;;;;;;;25.45;42.36;95174.31;4787389;29;20632;-69
2023/09/13 07:02:33;;;;;;;18.75;6.57;;;;;;;25.75;42.45;95171.09;4788171;29;20215;-69
2023/09/13 07:04:59;;;;;;;16.80;6.30;;;;;;;26.15;42.03;95171.41;4803490;29;20234;-70
2023/09/13 07:07:24;;;;;;;14.57;6.47;;;;;;;26.29;40.73;95151.41;4787182;29;20190;-70
2023/09/13 07:09:50;;;;;;;15.48;6.65;;;;;;;26.59;40.31;95168.06;4802439;29;20216;-70
2023/09/13 07:12:15;;;;;;;15.77;6.03;;;;;;;26.73;39.71;95170.72;4802972;29;20276;-70
2023/09/13 07:14:41;;;;;;;12.35;4.82;;;;;;;26.71;38.04;95172.94;4803254;29;20645;-70
2023/09/13 07:17:06;;;;;;;8.75;4.40;;;;;;;26.47;38.58;95156.97;4803130;29;20529;-69
2023/09/13 07:19:32;;;;;;;7.95;4.50;;;;;;;26.45;38.31;95168.09;4803190;29;20187;-69
2023/09/13 07:21:57;;;;;;;8.32;3.75;;;;;;;26.54;38.45;95166.28;4803242;29;20216;-68
2023/09/13 07:24:23;;;;;;;11.82;5.38;;;;;;;26.62;38.89;95160.16;4803000;29;20183;-69
2023/09/13 07:26:48;;;;;;;16.80;5.38;;;;;;;26.75;40.08;95168.53;4803006;29;20176;-69
2023/09/13 07:29:14;;;;;;;12.10;5.18;;;;;;;26.87;38.77;95172.28;4802548;29;20227;-69
2023/09/13 07:31:39;;;;;;;12.65;5.60;;;;;;;26.50;39.04;95167.19;4802688;29;20172;-69
2023/09/13 07:34:04;;;;;;;13.60;5.50;;;;;;;26.40;39.53;95168.19;4802956;29;20191;-69
2023/09/13 07:36:30;;;;;;;13.60;4.82;;;;;;;26.59;39.37;95165.38;4802830;29;20196;-69
2023/09/13 07:38:56;;;;;;;14.52;4.95;;;;;;;26.85;38.71;95162.88;4802891;29;20259;-69
2023/09/13 07:41:21;;;;;;;12.23;5.05;;;;;;;27.16;38.21;95168.38;4802715;29;20268;-70
2023/09/13 07:43:47;;;;;;;9.68;4.70;;;;;;;27.40;38.11;95153.47;4802818;29;20213;-69
2023/09/13 07:46:12;;;;;;;10.10;4.25;;;;;;;27.26;37.00;95155.44;4802808;29;20188;-69
2023/09/13 07:48:38;;;;;;;18.42;5.05;;;;;;;27.26;38.20;95150.00;4802703;29;20744;-69
2023/09/13 07:51:05;;;;;;;13.80;4.70;;;;;;;27.35;36.89;95148.16;4802670;29;20199;-70
2023/09/13 07:53:30;;;;;;;16.10;4.82;;;;;;;27.32;36.63;95156.91;4802517;29;20188;-69
2023/09/13 07:55:59;;;;;;;9.70;4.97;;;;;;;27.22;37.22;95154.47;4802723;29;20192;-69
2023/09/13 07:58:25;;;;;;;8.40;4.38;;;;;;;27.50;38.01;95157.81;4795256;29;20267;-70
2023/09/13 08:00:50;;;;;;;11.73;4.78;;;;;;;27.93;36.21;95157.25;4784728;29;20271;-70
2023/09/13 08:03:16;;;;;;;9.73;4.65;;;;;;;28.07;35.49;95158.72;4784668;29;20275;-69
2023/09/13 08:05:45;;;;;;;9.85;4.20;;;;;;;28.20;35.55;95154.31;4784622;29;20192;-69
2023/09/13 08:08:22;;;;;;;8.32;4.07;;;;;;;28.12;34.87;95155.88;4784102;29;20196;-70
2023/09/13 08:10:49;;;;;;;10.65;4.00;;;;;;;28.39;35.81;95156.75;4802639;29;20191;-70
2023/09/13 08:13:14;;;;;;;10.45;4.07;;;;;;;28.53;34.99;95160.16;4801645;29;20304;-70
2023/09/13 08:15:40;;;;;;;11.93;5.00;;;;;;;28.65;34.33;95163.00;4784487;29;20601;-70
2023/09/13 08:18:05;;;;;;;9.02;4.57;;;;;;;28.14;34.52;95136.59;4784518;29;20630;-70
2023/09/13 08:20:31;;;;;;;9.38;3.90;;;;;;;28.05;35.76;95141.19;4786469;29;20194;-70
2023/09/13 08:22:56;;;;;;;9.32;3.92;;;;;;;28.17;35.37;95152.25;4788162;29;20254;-70
2023/09/13 08:25:22;;;;;;;11.65;3.90;;;;;;;28.73;35.01;95151.38;4788140;29;20245;-71
2023/09/13 08:27:47;;;;;;;10.18;4.43;;;;;;;28.94;33.85;95138.03;4787900;29;20188;-70
2023/09/13 08:30:13;;;;;;;7.93;4.20;;;;;;;29.01;33.43;95149.19;4787869;29;20220;-70
2023/09/13 08:32:38;;;;;;;10.57;3.75;;;;;;;29.18;33.88;95156.50;4788003;29;20662;-70
2023/09/13 08:35:04;;;;;;;11.32;4.05;;;;;;;29.33;32.05;95150.56;4790092;29;20184;-70
2023/09/13 08:37:29;;;;;;;9.00;3.88;;;;;;;29.50;32.54;95150.56;4786913;29;20188;-70
2023/09/13 08:39:55;;;;;;;12.23;4.63;;;;;;;29.82;32.08;95149.22;4795031;29;20187;-69
2023/09/13 08:42:20;;;;;;;7.43;3.90;;;;;;;29.81;31.40;95144.09;4788614;29;20188;-70
2023/09/13 08:44:46;;;;;;;9.30;4.45;;;;;;;29.94;31.53;95141.19;4773881;29;20197;-70
2023/09/13 08:47:13;;;;;;;10.70;4.40;;;;;;;30.10;31.77;95129.78;4787435;29;20192;-70
2023/09/13 08:49:38;;;;;;;12.15;4.30;;;;;;;29.82;32.03;95132.13;4787599;29;20215;-70
2023/09/13 08:52:05;;;;;;;9.55;4.07;;;;;;;29.51;32.23;95135.88;4787745;29;20193;-70
2023/09/13 08:54:32;;;;;;;6.75;4.15;;;;;;;29.72;32.30;95133.28;4787486;29;20710;-70
2023/09/13 08:56:59;;;;;;;9.30;3.70;;;;;;;29.86;31.94;95116.75;4787262;29;20559;-70
2023/09/13 08:59:25;;;;;;;9.82;4.00;;;;;;;30.20;31.04;95130.19;4787322;29;20187;-70
2023/09/13 09:01:52;;;;;;;11.23;4.20;;;;;;;30.23;31.76;95126.03;4788213;29;20192;-70
2023/09/13 09:04:19;;;;;;;8.35;3.47;;;;;;;30.25;31.91;95127.31;4790774;29;20245;-70
2023/09/13 09:06:45;;;;;;;5.90;3.83;;;;;;;30.19;31.58;95111.50;4794316;29;20705;-71
2023/09/13 09:09:20;;;;;;;7.00;3.55;;;;;;;30.07;32.27;95123.09;4792191;29;20633;-71
2023/09/13 09:11:51;;;;;;;6.30;3.63;;;;;;;30.17;32.36;95119.22;4792588;29;20303;-70
2023/09/13 09:14:21;;;;;;;6.68;3.63;;;;;;;30.10;32.24;95122.41;4795651;29;20276;-71
2023/09/13 09:16:50;;;;;;;9.55;4.57;;;;;;;30.27;32.10;95116.88;4793647;29;20187;-71
2023/09/13 09:19:15;;;;;;;11.38;4.22;;;;;;;30.38;31.58;95109.94;4793300;29;20281;-71
2023/09/13 09:21:41;;;;;;;11.38;4.63;;;;;;;30.25;30.04;95112.91;4794654;29;20677;-70
2023/09/13 09:24:07;;;;;;;8.68;4.50;;;;;;;29.96;30.79;95114.50;4791715;29;20183;-71
2023/09/13 09:26:32;;;;;;;13.73;4.30;;;;;;;29.85;31.16;95113.25;4795308;29;20572;-70
2023/09/13 09:29:14;;;;;;;6.80;3.53;;;;;;;29.53;32.40;95113.84;4796929;29;21614;-69
2023/09/13 09:31:40;;;;;;;10.73;3.30;;;;;;;29.68;31.69;95115.22;4791558;29;20188;-70
2023/09/13 09:34:06;;;;;;;6.80;3.55;;;;;;;29.59;32.25;95112.53;4793325;29;20172;-70
2023/09/13 09:36:42;;;;;;;14.32;4.43;;;;;;;29.63;31.57;95110.78;4794205;29;20191;-70
2023/09/13 09:39:07;;;;;;;5.22;3.42;;;;;;;29.71;31.69;95109.97;4792462;29;20275;-70
2023/09/13 09:41:38;;;;;;;6.47;3.15;;;;;;;29.80;32.43;95109.94;4795320;29;20294;-70
2023/09/13 09:44:04;;;;;;;7.53;3.80;;;;;;;29.70;33.51;95104.84;4792611;29;20198;-70
2023/09/13 09:46:32;;;;;;;10.88;3.88;;;;;;;29.63;34.92;95098.00;4792972;29;20184;-70
2023/09/13 09:48:59;;;;;;;8.50;3.38;;;;;;;29.45;33.65;95101.91;4792970;29;20232;-71
2023/09/13 09:51:24;;;;;;;12.18;3.78;;;;;;;29.31;36.37;95093.16;4792752;29;20192;-70
2023/09/13 09:53:50;;;;;;;6.13;3.47;;;;;;;29.33;34.40;95090.88;4795250;29;20184;-70
2023/09/13 09:56:16;;;;;;;7.05;3.45;;;;;;;29.20;33.45;95078.31;4787042;29;20192;-70
2023/09/13 09:58:42;;;;;;;7.05;3.35;;;;;;;29.00;32.94;95087.94;4796269;29;20667;-70
2023/09/13 10:01:11;;;;;;;7.07;2.97;;;;;;;28.79;34.66;95087.81;4788642;29;20257;-70
2023/09/13 10:03:37;;;;;;;7.78;3.22;;;;;;;28.66;34.79;95085.22;4792757;29;20224;-71
2023/09/13 10:06:10;;;;;;;8.90;3.35;;;;;;;28.53;33.90;95074.25;4785892;29;20664;-70
2023/09/13 10:08:44;;;;;;;6.10;3.08;;;;;;;28.39;34.64;95067.38;4784641;29;20214;-70
2023/09/13 10:11:22;;;;;;;12.93;3.53;;;;;;;28.24;34.56;95067.84;4786025;29;20184;-70
2023/09/13 10:13:48;;;;;;;9.82;3.72;;;;;;;28.04;35.79;95064.59;4785937;29;20196;-71
2023/09/13 10:16:16;;;;;;;9.45;3.33;;;;;;;27.99;35.37;95064.75;4785955;30;20563;-71
2023/09/13 10:18:49;;;;;;;8.90;3.17;;;;;;;28.01;35.78;95061.72;4791761;29;20184;-71
2023/09/13 10:21:19;;;;;;;5.75;3.25;;;;;;;27.97;35.31;95053.44;4789642;29;20196;-70
2023/09/13 10:23:49;;;;;;;7.93;3.25;;;;;;;27.86;35.78;95035.88;4796904;29;20195;-71
2023/09/13 10:26:18;;;;;;;7.28;3.40;;;;;;;28.08;35.84;95052.03;4794756;29;20663;-71
2023/09/13 10:28:49;;;;;;;9.90;3.78;;;;;;;28.12;34.70;95052.16;4785921;29;20254;-71
2023/09/13 10:31:27;;;;;;;23.33;4.90;;;;;;;28.11;34.96;95051.38;4794345;29;20593;-71
2023/09/13 10:33:53;;;;;;;8.68;2.92;;;;;;;28.10;35.06;95049.00;4795289;29;20187;-71
2023/09/13 10:36:22;;;;;;;7.13;3.15;;;;;;;28.08;34.71;95052.03;4797387;29;20184;-71
2023/09/13 10:38:57;;;;;;;8.18;3.30;;;;;;;27.98;34.50;95025.25;4801050;29;20191;-70
2023/09/13 10:41:27;;;;;;;6.53;3.35;;;;;;;28.07;34.84;95038.78;4802775;29;20191;-70
2023/09/13 10:43:53;;;;;;;10.27;3.40;;;;;;;28.10;34.48;95041.69;4786202;29;20188;-70
2023/09/13 10:46:19;;;;;;;8.00;3.10;;;;;;;28.10;34.84;95038.16;4792091;29;20247;-71
2023/09/13 10:48:45;;;;;;;8.52;3.53;;;;;;;28.16;35.31;95036.94;4801620;29;20212;-71
2023/09/13 10:51:12;;;;;;;6.50;3.13;;;;;;;28.21;34.80;95027.84;4792437;29;20185;-71
2023/09/13 10:53:38;;;;;;;6.18;2.97;;;;;;;28.16;34.52;95017.97;4788418;29;20232;-70
2023/09/13 10:56:04;;;;;;;8.95;3.38;;;;;;;28.32;34.29;95034.53;4789662;29;20271;-72
2023/09/13 10:58:30;;;;;;;7.82;3.10;;;;;;;28.37;33.69;95035.16;4803731;29;20188;-70
2023/09/13 11:00:58;;;;;;;10.38;2.75;;;;;;;28.28;33.88;95017.34;4801249;29;20191;-70
2023/09/13 11:03:24;;;;;;;6.75;3.22;;;;;;;28.25;34.45;95021.47;4794876;29;20551;-69
2023/09/13 11:05:54;;;;;;;8.82;3.40;;;;;;;28.28;34.80;95020.06;4785063;29;20773;-70
2023/09/13 11:08:28;;;;;;;6.43;3.95;;;;;;;28.47;34.20;95026.72;4782828;29;20188;-70
2023/09/13 11:10:54;;;;;;;8.65;3.13;;;;;;;28.51;33.22;95021.47;4784545;29;20923;-69
2023/09/13 11:13:29;;;;;;;11.82;3.78;;;;;;;28.51;33.35;95022.28;4784326;29;20232;-69
2023/09/13 11:15:55;;;;;;;9.23;3.63;;;;;;;28.38;34.25;94984.50;4783560;29;20194;-69
2023/09/13 11:18:25;;;;;;;4.32;3.10;;;;;;;28.53;32.99;95003.78;4784387;29;20180;-69
2023/09/13 11:20:52;;;;;;;14.25;3.67;;;;;;;28.45;33.30;94999.16;4784528;29;20734;-69
2023/09/13 11:23:18;;;;;;;5.20;3.20;;;;;;;28.54;33.50;95001.88;4784682;29;20192;-69
2023/09/13 11:26:02;;;;;;;12.35;3.38;;;;;;;28.58;33.09;94983.06;4784419;29;20187;-70
2023/09/13 11:28:37;;;;;;;6.80;2.90;;;;;;;28.73;32.46;94993.38;4784220;29;20566;-69